As Olivia — DYQC — position and weather

sailwx.info

Track history (hours):
 
Tides and Currents Weather Stations Pressure Air Temp Water Temp Dewpoint Dewpoint Depression Visibility Wind Speed Wind Dir Waves Ship Positions

As Olivia

Last reported at 2017-Sep-20 00:15 UTC. Time now 2017-Sep-21 17:56 UTC.
Position N 36°12' E 014°49'.

Length 146 m; draft 9.8 m.

Type: Ship. MMSI: 548767000.

Date/timePositionNaut miles runAvg speedWind from/ knotsBaromVisibWave heightAir tempDewpointWater temp
2017-Sep-20 00:15N 36°12' E 014°49'413.9
2017-Sep-20 00:00N 36°13' E 014°45'714.2
2017-Sep-19 23:30N 36°15' E 014°36'713.8
2017-Sep-19 23:00N 36°17' E 014°28'713.7
2017-Sep-19 22:30N 36°19' E 014°20'713.5
2017-Sep-19 22:00N 36°22' E 014°13'713.4
2017-Sep-19 21:30N 36°24' E 014°05'813.5
2017-Sep-19 20:54N 36°27' E 013°55'613.5
2017-Sep-19 20:29N 36°29' E 013°49'713.4
2017-Sep-19 20:00N 36°31' E 013°41'813.4
2017-Sep-19 19:22N 36°34' E 013°32'1413.2
2017-Sep-19 18:19N 36°39' E 013°15'413.1
2017-Sep-19 17:59N 36°41' E 013°10'42913.4
2017-Sep-18 09:54N 37°15' E 004°15'714.2
2017-Sep-18 09:26N 37°14' E 004°07'45213.9
2017-Sep-17 01:01N 36°01' W 005°09'016.5
2017-Sep-17 01:00N 36°01' W 005°09'815.7
2017-Sep-17 00:30N 35°59' W 005°18'714.7
2017-Sep-17 00:00N 35°57' W 005°27'1213.1
2017-Sep-16 23:05N 35°54' W 005°42'221 4.9
2017-Sep-15 01:42N 33°08' W 008°38'3 0.5
2017-Sep-14 20:09N 33°09' W 008°41'1 3.2
2017-Sep-14 19:59N 33°09' W 008°41'0 0.1
2017-Sep-14 18:50N 33°09' W 008°41'0 0.0
2017-Sep-14 18:11N 33°09' W 008°41'0 0.0
2017-Sep-14 17:44N 33°09' W 008°41'0 0.1
2017-Sep-14 17:23N 33°09' W 008°41'0 0.0
2017-Sep-14 09:53N 33°09' W 008°41'0 0.0
2017-Sep-13 19:50N 33°09' W 008°41'0 0.0
2017-Sep-13 18:50N 33°09' W 008°41'0 0.0
2017-Sep-13 18:23N 33°09' W 008°41'0 0.1
2017-Sep-13 17:53N 33°09' W 008°41'0 0.0
2017-Sep-13 17:26N 33°09' W 008°41'  
Track history (hours):
 
Tides and Currents Weather Stations Pressure Air Temp Water Temp Dewpoint Dewpoint Depression Visibility Wind Speed Wind Dir Waves Ship Positions

As Olivia

Last reported at 2017-Sep-20 00:15 UTC. Time now 2017-Sep-21 17:56 UTC.
Position N 36°12' E 014°49'.

Length 146 m; draft 9.8 m.

Type: Ship. MMSI: 548767000.

Date/timePositionNaut miles runAvg speedWind from/ knotsBaromVisibWave heightAir tempDewpointWater temp
2017-Sep-20 00:15N 36°12' E 014°49'413.9
2017-Sep-20 00:00N 36°13' E 014°45'714.2
2017-Sep-19 23:30N 36°15' E 014°36'713.8
2017-Sep-19 23:00N 36°17' E 014°28'713.7
2017-Sep-19 22:30N 36°19' E 014°20'713.5
2017-Sep-19 22:00N 36°22' E 014°13'713.4
2017-Sep-19 21:30N 36°24' E 014°05'813.5
2017-Sep-19 20:54N 36°27' E 013°55'613.5
2017-Sep-19 20:29N 36°29' E 013°49'713.4
2017-Sep-19 20:00N 36°31' E 013°41'813.4
2017-Sep-19 19:22N 36°34' E 013°32'1413.2
2017-Sep-19 18:19N 36°39' E 013°15'413.1
2017-Sep-19 17:59N 36°41' E 013°10'42913.4
2017-Sep-18 09:54N 37°15' E 004°15'714.2
2017-Sep-18 09:26N 37°14' E 004°07'45213.9
2017-Sep-17 01:01N 36°01' W 005°09'016.5
2017-Sep-17 01:00N 36°01' W 005°09'815.7
2017-Sep-17 00:30N 35°59' W 005°18'714.7
2017-Sep-17 00:00N 35°57' W 005°27'1213.1
2017-Sep-16 23:05N 35°54' W 005°42'221 4.9
2017-Sep-15 01:42N 33°08' W 008°38'3 0.5
2017-Sep-14 20:09N 33°09' W 008°41'1 3.2
2017-Sep-14 19:59N 33°09' W 008°41'0 0.1
2017-Sep-14 18:50N 33°09' W 008°41'0 0.0
2017-Sep-14 18:11N 33°09' W 008°41'0 0.0
2017-Sep-14 17:44N 33°09' W 008°41'0 0.1
2017-Sep-14 17:23N 33°09' W 008°41'0 0.0
2017-Sep-14 09:53N 33°09' W 008°41'0 0.0
2017-Sep-13 19:50N 33°09' W 008°41'0 0.0
2017-Sep-13 18:50N 33°09' W 008°41'0 0.0
2017-Sep-13 18:23N 33°09' W 008°41'0 0.1
2017-Sep-13 17:53N 33°09' W 008°41'0 0.0
2017-Sep-13 17:26N 33°09' W 008°41'  

Dump ship's entire track history